sensor_id;sensor_type;location;lat;lon;timestamp;pressure;altitude;pressure_sealevel;temperature;humidity
17054;BME280;8643;48.824;11.422;2023-09-12T00:02:08;96677.50;;;15.14;100.00
17054;BME280;8643;48.824;11.422;2023-09-12T00:04:37;96663.66;;;15.10;100.00
17054;BME280;8643;48.824;11.422;2023-09-12T00:07:05;96668.34;;;15.06;100.00
17054;BME280;8643;48.824;11.422;2023-09-12T00:09:34;96664.97;;;15.16;100.00
17054;BME280;8643;48.824;11.422;2023-09-12T00:12:03;96678.63;;;15.09;100.00
17054;BME280;8643;48.824;11.422;2023-09-12T00:14:32;96675.00;;;15.05;100.00
17054;BME280;8643;48.824;11.422;2023-09-12T00:17:02;96670.84;;;14.92;100.00
17054;BME280;8643;48.824;11.422;2023-09-12T00:19:30;96682.19;;;14.87;100.00
17054;BME280;8643;48.824;11.422;2023-09-12T00:21:58;96673.97;;;14.90;100.00
17054;BME280;8643;48.824;11.422;2023-09-12T00:24:27;96672.88;;;14.95;100.00
17054;BME280;8643;48.824;11.422;2023-09-12T00:26:56;96666.84;;;14.89;100.00
17054;BME280;8643;48.824;11.422;2023-09-12T00:29:25;96671.22;;;14.90;100.00
17054;BME280;8643;48.824;11.422;2023-09-12T00:31:53;96662.44;;;14.84;100.00
17054;BME280;8643;48.824;11.422;2023-09-12T00:34:23;96666.38;;;14.83;100.00
17054;BME280;8643;48.824;11.422;2023-09-12T00:36:51;96662.25;;;14.74;100.00
17054;BME280;8643;48.824;11.422;2023-09-12T00:39:19;96652.81;;;14.75;100.00
17054;BME280;8643;48.824;11.422;2023-09-12T00:41:48;96643.75;;;14.74;100.00
17054;BME280;8643;48.824;11.422;2023-09-12T00:44:16;96650.56;;;14.80;100.00
17054;BME280;8643;48.824;11.422;2023-09-12T00:46:48;96641.66;;;14.91;100.00
17054;BME280;8643;48.824;11.422;2023-09-12T00:49:18;96637.75;;;15.15;100.00
17054;BME280;8643;48.824;11.422;2023-09-12T00:51:50;96630.31;;;15.42;100.00
17054;BME280;8643;48.824;11.422;2023-09-12T00:54:19;96642.44;;;15.64;100.00
17054;BME280;8643;48.824;11.422;2023-09-12T00:56:48;96630.78;;;15.74;100.00
17054;BME280;8643;48.824;11.422;2023-09-12T00:59:18;96627.84;;;15.90;100.00
17054;BME280;8643;48.824;11.422;2023-09-12T01:01:47;96628.31;;;15.96;100.00
17054;BME280;8643;48.824;11.422;2023-09-12T01:04:16;96624.53;;;15.78;100.00
17054;BME280;8643;48.824;11.422;2023-09-12T01:07:03;96622.66;;;15.85;100.00
17054;BME280;8643;48.824;11.422;2023-09-12T01:09:33;96624.44;;;16.01;100.00
17054;BME280;8643;48.824;11.422;2023-09-12T01:12:02;96626.16;;;15.82;100.00
17054;BME280;8643;48.824;11.422;2023-09-12T01:14:30;96627.75;;;15.83;100.00
17054;BME280;8643;48.824;11.422;2023-09-12T01:17:00;96631.25;;;15.80;100.00
17054;BME280;8643;48.824;11.422;2023-09-12T01:19:30;96633.31;;;15.60;100.00
17054;BME280;8643;48.824;11.422;2023-09-12T01:22:23;96623.91;;;15.38;100.00
17054;BME280;8643;48.824;11.422;2023-09-12T01:28:13;96625.78;;;15.30;100.00
17054;BME280;8643;48.824;11.422;2023-09-12T01:30:47;96629.16;;;15.20;100.00
17054;BME280;8643;48.824;11.422;2023-09-12T01:33:16;96627.72;;;15.03;100.00
17054;BME280;8643;48.824;11.422;2023-09-12T01:35:45;96627.56;;;14.96;100.00
17054;BME280;8643;48.824;11.422;2023-09-12T01:38:14;96626.47;;;15.00;100.00
17054;BME280;8643;48.824;11.422;2023-09-12T01:40:48;96629.22;;;15.00;100.00
17054;BME280;8643;48.824;11.422;2023-09-12T01:43:22;96622.44;;;14.94;100.00
17054;BME280;8643;48.824;11.422;2023-09-12T01:45:55;96633.44;;;14.94;100.00
17054;BME280;8643;48.824;11.422;2023-09-12T01:48:31;96629.28;;;15.04;100.00
17054;BME280;8643;48.824;11.422;2023-09-12T01:51:03;96625.88;;;15.11;100.00
17054;BME280;8643;48.824;11.422;2023-09-12T01:53:34;96626.34;;;15.16;100.00
17054;BME280;8643;48.824;11.422;2023-09-12T01:56:04;96629.91;;;15.17;100.00
17054;BME280;8643;48.824;11.422;2023-09-12T01:58:35;96635.34;;;15.13;100.00
17054;BME280;8643;48.824;11.422;2023-09-12T02:01:03;96632.13;;;15.08;100.00
17054;BME280;8643;48.824;11.422;2023-09-12T02:03:32;96629.69;;;15.02;100.00
17054;BME280;8643;48.824;11.422;2023-09-12T02:06:02;96634.81;;;15.04;100.00
17054;BME280;8643;48.824;11.422;2023-09-12T02:08:30;96633.59;;;15.01;100.00
17054;BME280;8643;48.824;11.422;2023-09-12T02:10:59;96637.56;;;15.04;100.00
17054;BME280;8643;48.824;11.422;2023-09-12T02:13:27;96639.41;;;14.96;100.00
17054;BME280;8643;48.824;11.422;2023-09-12T02:16:01;96645.88;;;14.84;100.00
17054;BME280;8643;48.824;11.422;2023-09-12T02:18:31;96640.25;;;14.77;100.00
17054;BME280;8643;48.824;11.422;2023-09-12T02:20:59;96643.75;;;14.74;100.00
17054;BME280;8643;48.824;11.422;2023-09-12T02:23:28;96643.31;;;14.72;100.00
17054;BME280;8643;48.824;11.422;2023-09-12T02:25:56;96640.06;;;14.66;100.00
17054;BME280;8643;48.824;11.422;2023-09-12T02:28:25;96641.72;;;14.71;100.00
17054;BME280;8643;48.824;11.422;2023-09-12T02:30:53;96644.84;;;14.70;100.00
17054;BME280;8643;48.824;11.422;2023-09-12T02:33:23;96639.84;;;14.56;100.00
17054;BME280;8643;48.824;11.422;2023-09-12T02:35:52;96642.19;;;14.54;100.00
17054;BME280;8643;48.824;11.422;2023-09-12T02:38:21;96646.81;;;14.49;100.00
17054;BME280;8643;48.824;11.422;2023-09-12T02:40:49;96657.78;;;14.46;100.00
17054;BME280;8643;48.824;11.422;2023-09-12T02:43:18;96655.66;;;14.39;100.00
17054;BME280;8643;48.824;11.422;2023-09-12T02:45:46;96659.66;;;14.22;100.00
17054;BME280;8643;48.824;11.422;2023-09-12T02:48:14;96649.72;;;14.18;100.00
17054;BME280;8643;48.824;11.422;2023-09-12T02:50:45;96650.72;;;14.09;100.00
17054;BME280;8643;48.824;11.422;2023-09-12T02:53:13;96654.22;;;14.06;100.00
17054;BME280;8643;48.824;11.422;2023-09-12T02:55:43;96661.53;;;13.99;100.00
17054;BME280;8643;48.824;11.422;2023-09-12T02:58:11;96649.56;;;13.91;100.00
17054;BME280;8643;48.824;11.422;2023-09-12T03:00:40;96647.69;;;13.75;100.00
17054;BME280;8643;48.824;11.422;2023-09-12T03:03:09;96644.06;;;13.91;100.00
17054;BME280;8643;48.824;11.422;2023-09-12T03:05:38;96642.63;;;13.97;100.00
17054;BME280;8643;48.824;11.422;2023-09-12T03:08:08;96649.88;;;14.05;100.00
17054;BME280;8643;48.824;11.422;2023-09-12T03:10:37;96655.81;;;14.07;100.00
17054;BME280;8643;48.824;11.422;2023-09-12T03:13:05;96652.34;;;14.10;100.00
17054;BME280;8643;48.824;11.422;2023-09-12T03:15:36;96658.84;;;14.02;100.00
17054;BME280;8643;48.824;11.422;2023-09-12T03:18:10;96652.75;;;13.93;100.00
17054;BME280;8643;48.824;11.422;2023-09-12T03:20:39;96647.19;;;13.89;100.00
17054;BME280;8643;48.824;11.422;2023-09-12T03:23:09;96650.72;;;13.90;100.00
17054;BME280;8643;48.824;11.422;2023-09-12T03:25:38;96650.72;;;13.90;100.00
17054;BME280;8643;48.824;11.422;2023-09-12T03:28:07;96648.50;;;13.96;100.00
17054;BME280;8643;48.824;11.422;2023-09-12T03:30:37;96647.34;;;13.97;100.00
17054;BME280;8643;48.824;11.422;2023-09-12T03:33:07;96640.88;;;13.89;100.00
17054;BME280;8643;48.824;11.422;2023-09-12T03:35:36;96650.44;;;13.75;100.00
17054;BME280;8643;48.824;11.422;2023-09-12T03:38:05;96647.94;;;13.70;100.00
17054;BME280;8643;48.824;11.422;2023-09-12T03:40:35;96653.78;;;13.69;100.00
17054;BME280;8643;48.824;11.422;2023-09-12T03:43:03;96654.75;;;13.77;100.00
17054;BME280;8643;48.824;11.422;2023-09-12T03:45:32;96655.94;;;13.75;100.00
17054;BME280;8643;48.824;11.422;2023-09-12T03:48:00;96650.84;;;13.78;100.00
17054;BME280;8643;48.824;11.422;2023-09-12T03:50:30;96650.06;;;13.77;100.00
17054;BME280;8643;48.824;11.422;2023-09-12T03:52:59;96650.84;;;13.78;100.00
17054;BME280;8643;48.824;11.422;2023-09-12T03:55:28;96661.88;;;13.78;100.00
17054;BME280;8643;48.824;11.422;2023-09-12T03:57:58;96659.03;;;13.74;100.00
17054;BME280;8643;48.824;11.422;2023-09-12T04:00:26;96664.09;;;13.72;100.00
17054;BME280;8643;48.824;11.422;2023-09-12T04:02:55;96665.69;;;13.73;100.00
17054;BME280;8643;48.824;11.422;2023-09-12T04:05:25;96662.59;;;13.74;100.00
17054;BME280;8643;48.824;11.422;2023-09-12T04:07:54;96662.59;;;13.74;100.00
17054;BME280;8643;48.824;11.422;2023-09-12T04:10:23;96663.72;;;13.73;100.00
17054;BME280;8643;48.824;11.422;2023-09-12T04:12:51;96670.06;;;13.74;100.00
17054;BME280;8643;48.824;11.422;2023-09-12T04:15:21;96666.66;;;13.81;100.00
17054;BME280;8643;48.824;11.422;2023-09-12T04:17:49;96664.34;;;13.83;100.00
17054;BME280;8643;48.824;11.422;2023-09-12T04:20:19;96667.16;;;13.86;100.00
17054;BME280;8643;48.824;11.422;2023-09-12T04:22:47;96665.94;;;13.84;100.00
17054;BME280;8643;48.824;11.422;2023-09-12T04:25:16;96665.13;;;13.83;100.00
17054;BME280;8643;48.824;11.422;2023-09-12T04:27:47;96665.94;;;13.84;100.00
17054;BME280;8643;48.824;11.422;2023-09-12T04:30:16;96664.13;;;13.91;100.00
17054;BME280;8643;48.824;11.422;2023-09-12T04:32:46;96663.47;;;13.98;100.00
17054;BME280;8643;48.824;11.422;2023-09-12T04:35:14;96663.75;;;13.93;100.00
17054;BME280;8643;48.824;11.422;2023-09-12T04:37:43;96662.81;;;13.85;100.00
17054;BME280;8643;48.824;11.422;2023-09-12T04:40:11;96655.28;;;13.82;100.00
17054;BME280;8643;48.824;11.422;2023-09-12T04:42:40;96649.13;;;13.89;100.00
17054;BME280;8643;48.824;11.422;2023-09-12T04:45:09;96659.50;;;13.96;100.00
17054;BME280;8643;48.824;11.422;2023-09-12T04:47:38;96666.69;;;14.00;100.00
17054;BME280;8643;48.824;11.422;2023-09-12T04:50:09;96657.25;;;14.01;100.00
17054;BME280;8643;48.824;11.422;2023-09-12T04:52:38;96659.00;;;14.09;100.00
17054;BME280;8643;48.824;11.422;2023-09-12T04:55:08;96656.47;;;14.20;100.00
17054;BME280;8643;48.824;11.422;2023-09-12T04:57:36;96657.47;;;14.32;100.00
17054;BME280;8643;48.824;11.422;2023-09-12T05:00:10;96667.00;;;14.34;100.00
17054;BME280;8643;48.824;11.422;2023-09-12T05:02:39;96655.88;;;14.30;100.00
17054;BME280;8643;48.824;11.422;2023-09-12T05:05:09;96657.91;;;14.34;100.00
17054;BME280;8643;48.824;11.422;2023-09-12T05:07:38;96664.72;;;14.40;100.00
17054;BME280;8643;48.824;11.422;2023-09-12T05:10:07;96662.19;;;14.31;100.00
17054;BME280;8643;48.824;11.422;2023-09-12T05:12:36;96656.53;;;14.24;100.00
17054;BME280;8643;48.824;11.422;2023-09-12T05:15:06;96656.84;;;14.19;100.00
17054;BME280;8643;48.824;11.422;2023-09-12T05:17:35;96657.25;;;14.21;100.00
17054;BME280;8643;48.824;11.422;2023-09-12T05:20:04;96660.25;;;14.32;100.00
17054;BME280;8643;48.824;11.422;2023-09-12T05:22:35;96668.28;;;14.40;100.00
17054;BME280;8643;48.824;11.422;2023-09-12T05:25:05;96668.06;;;14.49;100.00
17054;BME280;8643;48.824;11.422;2023-09-12T05:27:34;96674.00;;;14.71;100.00
17054;BME280;8643;48.824;11.422;2023-09-12T05:30:04;96672.34;;;14.66;100.00
17054;BME280;8643;48.824;11.422;2023-09-12T05:32:32;96676.44;;;14.56;100.00
17054;BME280;8643;48.824;11.422;2023-09-12T05:35:01;96676.22;;;14.45;100.00
17054;BME280;8643;48.824;11.422;2023-09-12T05:37:47;96685.31;;;14.46;100.00
17054;BME280;8643;48.824;11.422;2023-09-12T05:40:17;96686.53;;;14.48;100.00
17054;BME280;8643;48.824;11.422;2023-09-12T05:42:45;96684.91;;;14.63;100.00
17054;BME280;8643;48.824;11.422;2023-09-12T05:45:14;96690.81;;;15.08;100.00
17054;BME280;8643;48.824;11.422;2023-09-12T05:47:42;96686.97;;;15.63;100.00
17054;BME280;8643;48.824;11.422;2023-09-12T05:50:11;96696.72;;;16.10;100.00
17054;BME280;8643;48.824;11.422;2023-09-12T05:52:39;96686.91;;;16.43;100.00
17054;BME280;8643;48.824;11.422;2023-09-12T05:55:13;96680.94;;;16.75;100.00
17054;BME280;8643;48.824;11.422;2023-09-12T05:57:41;96684.56;;;17.16;100.00
17054;BME280;8643;48.824;11.422;2023-09-12T06:00:11;96687.53;;;17.41;100.00
17054;BME280;8643;48.824;11.422;2023-09-12T06:02:42;96690.03;;;17.57;100.00
17054;BME280;8643;48.824;11.422;2023-09-12T06:05:11;96697.69;;;17.75;100.00
17054;BME280;8643;48.824;11.422;2023-09-12T06:07:40;96698.13;;;17.84;100.00
17054;BME280;8643;48.824;11.422;2023-09-12T06:10:09;96694.69;;;17.98;100.00
17054;BME280;8643;48.824;11.422;2023-09-12T06:12:39;96690.88;;;18.28;100.00
17054;BME280;8643;48.824;11.422;2023-09-12T06:15:08;96693.00;;;18.56;100.00
17054;BME280;8643;48.824;11.422;2023-09-12T06:17:36;96683.22;;;18.84;100.00
17054;BME280;8643;48.824;11.422;2023-09-12T06:20:07;96689.22;;;19.26;100.00
17054;BME280;8643;48.824;11.422;2023-09-12T06:22:35;96694.41;;;19.52;100.00
17054;BME280;8643;48.824;11.422;2023-09-12T06:25:05;96695.97;;;20.00;100.00
17054;BME280;8643;48.824;11.422;2023-09-12T06:27:33;96689.50;;;20.39;100.00
17054;BME280;8643;48.824;11.422;2023-09-12T06:30:05;96696.69;;;20.29;100.00
17054;BME280;8643;48.824;11.422;2023-09-12T06:32:34;96702.16;;;20.55;100.00
17054;BME280;8643;48.824;11.422;2023-09-12T06:35:05;96695.16;;;21.10;100.00
17054;BME280;8643;48.824;11.422;2023-09-12T06:37:33;96698.19;;;21.86;98.98
17054;BME280;8643;48.824;11.422;2023-09-12T06:40:02;96707.16;;;22.77;91.14
17054;BME280;8643;48.824;11.422;2023-09-12T06:42:31;96711.34;;;22.61;85.56
17054;BME280;8643;48.824;11.422;2023-09-12T06:45:00;96710.88;;;22.32;87.27
17054;BME280;8643;48.824;11.422;2023-09-12T06:47:30;96714.25;;;22.50;87.55
17054;BME280;8643;48.824;11.422;2023-09-12T06:49:59;96710.47;;;22.33;92.75
17054;BME280;8643;48.824;11.422;2023-09-12T06:52:27;96716.00;;;22.37;89.74
17054;BME280;8643;48.824;11.422;2023-09-12T06:54:55;96711.03;;;22.86;92.57
17054;BME280;8643;48.824;11.422;2023-09-12T06:57:24;96712.03;;;22.69;90.88
17054;BME280;8643;48.824;11.422;2023-09-12T06:59:52;96722.41;;;22.99;91.61
17054;BME280;8643;48.824;11.422;2023-09-12T07:02:21;96709.63;;;23.02;90.71
17054;BME280;8643;48.824;11.422;2023-09-12T07:04:51;96712.28;;;23.40;91.38
17054;BME280;8643;48.824;11.422;2023-09-12T07:07:19;96709.97;;;23.62;85.35
17054;BME280;8643;48.824;11.422;2023-09-12T07:09:48;96718.81;;;23.30;84.90
17054;BME280;8643;48.824;11.422;2023-09-12T07:12:17;96719.13;;;23.35;87.73
17054;BME280;8643;48.824;11.422;2023-09-12T07:14:45;96720.84;;;22.98;88.92
17054;BME280;8643;48.824;11.422;2023-09-12T07:17:13;96712.81;;;23.58;84.99
17054;BME280;8643;48.824;11.422;2023-09-12T07:19:42;96713.19;;;23.84;86.18
17054;BME280;8643;48.824;11.422;2023-09-12T07:22:12;96715.59;;;24.29;83.09
17054;BME280;8643;48.824;11.422;2023-09-12T07:24:41;96715.81;;;24.39;83.63
17054;BME280;8643;48.824;11.422;2023-09-12T07:27:09;96714.47;;;24.47;82.07
17054;BME280;8643;48.824;11.422;2023-09-12T07:29:38;96715.38;;;24.84;83.18
17054;BME280;8643;48.824;11.422;2023-09-12T07:32:06;96715.53;;;25.66;73.86
17054;BME280;8643;48.824;11.422;2023-09-12T07:34:35;96717.47;;;25.16;78.52
17054;BME280;8643;48.824;11.422;2023-09-12T07:37:04;96718.88;;;25.61;75.15
17054;BME280;8643;48.824;11.422;2023-09-12T07:39:34;96724.28;;;25.85;72.36
17054;BME280;8643;48.824;11.422;2023-09-12T07:42:03;96722.91;;;26.09;70.37
17054;BME280;8643;48.824;11.422;2023-09-12T07:44:31;96726.84;;;26.12;72.20
17054;BME280;8643;48.824;11.422;2023-09-12T07:47:01;96726.41;;;26.43;74.59
17054;BME280;8643;48.824;11.422;2023-09-12T07:49:30;96723.22;;;26.86;68.89
17054;BME280;8643;48.824;11.422;2023-09-12T07:51:58;96727.19;;;25.65;71.54
17054;BME280;8643;48.824;11.422;2023-09-12T07:54:27;96729.81;;;25.88;76.08
17054;BME280;8643;48.824;11.422;2023-09-12T07:56:57;96731.91;;;25.68;70.75
17054;BME280;8643;48.824;11.422;2023-09-12T07:59:25;96733.06;;;25.54;72.32
17054;BME280;8643;48.824;11.422;2023-09-12T08:01:54;96734.50;;;25.42;73.77
17054;BME280;8643;48.824;11.422;2023-09-12T08:04:22;96733.06;;;26.20;72.08
17054;BME280;8643;48.824;11.422;2023-09-12T08:06:51;96732.56;;;26.38;73.16
17054;BME280;8643;48.824;11.422;2023-09-12T08:09:50;96733.59;;;27.02;71.61
17054;BME280;8643;48.824;11.422;2023-09-12T08:12:22;96735.44;;;27.22;71.38
17054;BME280;8643;48.824;11.422;2023-09-12T08:14:51;96735.56;;;27.57;63.79
17054;BME280;8643;48.824;11.422;2023-09-12T08:17:19;96728.44;;;28.16;63.68
17054;BME280;8643;48.824;11.422;2023-09-12T08:19:48;96733.63;;;28.18;61.87
17054;BME280;8643;48.824;11.422;2023-09-12T08:22:17;96735.75;;;27.88;65.30
17054;BME280;8643;48.824;11.422;2023-09-12T08:24:46;96736.72;;;28.68;61.73
17054;BME280;8643;48.824;11.422;2023-09-12T08:27:14;96733.44;;;28.69;61.15
17054;BME280;8643;48.824;11.422;2023-09-12T08:29:44;96736.44;;;27.92;68.99
17054;BME280;8643;48.824;11.422;2023-09-12T08:32:15;96724.00;;;27.93;67.89
17054;BME280;8643;48.824;11.422;2023-09-12T08:34:43;96731.47;;;28.09;65.45
17054;BME280;8643;48.824;11.422;2023-09-12T08:37:12;96737.31;;;28.85;63.36
17054;BME280;8643;48.824;11.422;2023-09-12T08:39:43;96736.38;;;29.41;66.12
17054;BME280;8643;48.824;11.422;2023-09-12T08:42:14;96738.03;;;29.92;62.36
17054;BME280;8643;48.824;11.422;2023-09-12T08:44:44;96741.19;;;29.32;62.44
17054;BME280;8643;48.824;11.422;2023-09-12T08:47:15;96739.22;;;30.50;55.46
17054;BME280;8643;48.824;11.422;2023-09-12T08:49:45;96747.25;;;30.70;57.41
17054;BME280;8643;48.824;11.422;2023-09-12T08:52:14;96740.09;;;30.10;53.94
17054;BME280;8643;48.824;11.422;2023-09-12T08:54:43;96739.94;;;30.14;55.44
17054;BME280;8643;48.824;11.422;2023-09-12T08:57:12;96742.78;;;30.32;53.82
17054;BME280;8643;48.824;11.422;2023-09-12T08:59:44;96750.22;;;29.80;53.23
17054;BME280;8643;48.824;11.422;2023-09-12T09:02:15;96741.31;;;30.00;59.04
17054;BME280;8643;48.824;11.422;2023-09-12T09:04:47;96745.63;;;29.73;56.70
17054;BME280;8643;48.824;11.422;2023-09-12T09:07:21;96739.97;;;29.73;52.97
17054;BME280;8643;48.824;11.422;2023-09-12T09:09:50;96736.72;;;29.43;58.61
17054;BME280;8643;48.824;11.422;2023-09-12T09:12:21;96734.28;;;29.64;61.11
17054;BME280;8643;48.824;11.422;2023-09-12T09:14:51;96728.75;;;29.92;55.66
17054;BME280;8643;48.824;11.422;2023-09-12T09:17:20;96732.81;;;29.82;55.79
17054;BME280;8643;48.824;11.422;2023-09-12T09:20:02;96731.03;;;30.34;55.02
17054;BME280;8643;48.824;11.422;2023-09-12T09:22:36;96733.41;;;30.73;52.37
17054;BME280;8643;48.824;11.422;2023-09-12T09:25:12;96731.81;;;30.99;52.95
17054;BME280;8643;48.824;11.422;2023-09-12T09:27:41;96736.75;;;31.41;49.92
17054;BME280;8643;48.824;11.422;2023-09-12T09:30:12;96729.59;;;31.65;52.16
17054;BME280;8643;48.824;11.422;2023-09-12T09:32:41;96724.28;;;31.15;52.10
17054;BME280;8643;48.824;11.422;2023-09-12T09:35:09;96728.31;;;31.75;50.89
17054;BME280;8643;48.824;11.422;2023-09-12T09:37:38;96725.81;;;31.68;50.61
17054;BME280;8643;48.824;11.422;2023-09-12T09:40:09;96721.53;;;31.39;55.06
17054;BME280;8643;48.824;11.422;2023-09-12T09:42:38;96727.31;;;31.54;49.50
17054;BME280;8643;48.824;11.422;2023-09-12T09:45:07;96722.75;;;31.47;49.85
17054;BME280;8643;48.824;11.422;2023-09-12T09:47:37;96716.28;;;30.76;54.37
17054;BME280;8643;48.824;11.422;2023-09-12T09:50:06;96718.31;;;31.03;53.75
17054;BME280;8643;48.824;11.422;2023-09-12T09:52:35;96717.22;;;31.10;53.71
17054;BME280;8643;48.824;11.422;2023-09-12T09:55:06;96716.00;;;30.37;51.75
17054;BME280;8643;48.824;11.422;2023-09-12T09:57:37;96710.63;;;30.21;52.22
17054;BME280;8643;48.824;11.422;2023-09-12T10:00:08;96709.72;;;30.42;55.79
17054;BME280;8643;48.824;11.422;2023-09-12T10:02:47;96705.31;;;30.50;56.42
17054;BME280;8643;48.824;11.422;2023-09-12T10:05:18;96698.09;;;30.77;54.61
17054;BME280;8643;48.824;11.422;2023-09-12T10:07:49;96692.44;;;31.38;53.76
17054;BME280;8643;48.824;11.422;2023-09-12T10:10:19;96694.75;;;31.06;56.40
17054;BME280;8643;48.824;11.422;2023-09-12T10:12:55;96696.38;;;31.41;54.44
17054;BME280;8643;48.824;11.422;2023-09-12T10:15:29;96691.25;;;31.64;52.04
17054;BME280;8643;48.824;11.422;2023-09-12T10:18:09;96698.78;;;31.91;50.17
17054;BME280;8643;48.824;11.422;2023-09-12T10:20:50;96697.13;;;31.41;50.72
17054;BME280;8643;48.824;11.422;2023-09-12T10:23:27;96697.66;;;31.73;50.57
17054;BME280;8643;48.824;11.422;2023-09-12T10:25:59;96685.97;;;31.47;50.88
17054;BME280;8643;48.824;11.422;2023-09-12T10:28:29;96688.34;;;31.39;55.95
17054;BME280;8643;48.824;11.422;2023-09-12T10:31:01;96686.75;;;32.05;50.42
17054;BME280;8643;48.824;11.422;2023-09-12T10:33:31;96681.13;;;32.83;49.07
17054;BME280;8643;48.824;11.422;2023-09-12T10:36:02;96673.91;;;32.82;48.67
17054;BME280;8643;48.824;11.422;2023-09-12T10:38:33;96666.03;;;32.62;51.50
17054;BME280;8643;48.824;11.422;2023-09-12T10:41:05;96677.34;;;31.99;50.92
17054;BME280;8643;48.824;11.422;2023-09-12T10:43:37;96674.84;;;32.01;48.67
17054;BME280;8643;48.824;11.422;2023-09-12T10:46:07;96668.31;;;31.86;50.13
17054;BME280;8643;48.824;11.422;2023-09-12T10:48:38;96663.31;;;32.05;52.29
17054;BME280;8643;48.824;11.422;2023-09-12T10:51:08;96671.13;;;32.19;48.81
17054;BME280;8643;48.824;11.422;2023-09-12T10:53:38;96663.97;;;31.42;52.76
17054;BME280;8643;48.824;11.422;2023-09-12T10:56:19;96668.97;;;32.14;47.99
17054;BME280;8643;48.824;11.422;2023-09-12T10:59:13;96672.78;;;31.77;51.33
17054;BME280;8643;48.824;11.422;2023-09-12T11:01:44;96669.13;;;31.19;48.73
17054;BME280;8643;48.824;11.422;2023-09-12T11:04:33;96668.06;;;31.41;47.77
17054;BME280;8643;48.824;11.422;2023-09-12T11:07:32;96670.66;;;31.20;48.38
17054;BME280;8643;48.824;11.422;2023-09-12T11:10:21;96672.50;;;29.97;50.39
17054;BME280;8643;48.824;11.422;2023-09-12T11:12:51;96674.34;;;29.82;52.17
17054;BME280;8643;48.824;11.422;2023-09-12T11:15:22;96658.88;;;30.24;51.50
17054;BME280;8643;48.824;11.422;2023-09-12T11:18:02;96668.28;;;30.48;53.24
17054;BME280;8643;48.824;11.422;2023-09-12T11:20:59;96666.28;;;31.19;51.96
17054;BME280;8643;48.824;11.422;2023-09-12T11:23:30;96661.66;;;30.70;52.34
17054;BME280;8643;48.824;11.422;2023-09-12T11:26:06;96661.31;;;30.96;52.36
17054;BME280;8643;48.824;11.422;2023-09-12T11:28:38;96650.69;;;30.63;53.52
17054;BME280;8643;48.824;11.422;2023-09-12T11:31:10;96651.78;;;31.27;51.68
17054;BME280;8643;48.824;11.422;2023-09-12T11:33:41;96656.97;;;31.61;52.61
17054;BME280;8643;48.824;11.422;2023-09-12T11:36:15;96658.00;;;31.97;51.57
17054;BME280;8643;48.824;11.422;2023-09-12T11:38:49;96653.09;;;32.07;49.95
17054;BME280;8643;48.824;11.422;2023-09-12T11:41:39;96652.03;;;31.47;51.90
17054;BME280;8643;48.824;11.422;2023-09-12T11:44:08;96645.88;;;31.49;51.81
17054;BME280;8643;48.824;11.422;2023-09-12T11:46:37;96655.97;;;31.40;52.63
17054;BME280;8643;48.824;11.422;2023-09-12T11:49:06;96652.88;;;30.77;52.11
17054;BME280;8643;48.824;11.422;2023-09-12T11:51:46;96649.66;;;31.03;52.10
17054;BME280;8643;48.824;11.422;2023-09-12T11:54:15;96644.44;;;30.49;52.34
17054;BME280;8643;48.824;11.422;2023-09-12T11:56:47;96646.94;;;30.57;52.70
17054;BME280;8643;48.824;11.422;2023-09-12T11:59:16;96643.41;;;30.89;50.68
17054;BME280;8643;48.824;11.422;2023-09-12T12:01:46;96647.94;;;31.05;51.12
17054;BME280;8643;48.824;11.422;2023-09-12T12:04:15;96652.84;;;31.38;53.80
17054;BME280;8643;48.824;11.422;2023-09-12T12:06:45;96647.19;;;31.38;50.57
17054;BME280;8643;48.824;11.422;2023-09-12T12:09:14;96648.75;;;31.73;48.60
17054;BME280;8643;48.824;11.422;2023-09-12T12:11:46;96643.31;;;31.60;49.29
17054;BME280;8643;48.824;11.422;2023-09-12T12:14:16;96646.09;;;31.36;49.98
17054;BME280;8643;48.824;11.422;2023-09-12T12:16:47;96648.56;;;31.52;50.76
17054;BME280;8643;48.824;11.422;2023-09-12T12:19:15;96648.03;;;31.87;53.63
17054;BME280;8643;48.824;11.422;2023-09-12T12:21:45;96648.59;;;32.40;49.24
17054;BME280;8643;48.824;11.422;2023-09-12T12:24:15;96638.47;;;31.85;49.18
17054;BME280;8643;48.824;11.422;2023-09-12T12:26:44;96632.88;;;31.75;48.13
17054;BME280;8643;48.824;11.422;2023-09-12T12:29:12;96627.53;;;31.68;48.25
17054;BME280;8643;48.824;11.422;2023-09-12T12:31:41;96621.00;;;31.62;48.48
17054;BME280;8643;48.824;11.422;2023-09-12T12:34:10;96624.38;;;31.42;46.92
17054;BME280;8643;48.824;11.422;2023-09-12T12:36:59;96615.59;;;31.06;48.55
17054;BME280;8643;48.824;11.422;2023-09-12T12:39:29;96616.28;;;30.74;48.34
17054;BME280;8643;48.824;11.422;2023-09-12T12:41:57;96620.09;;;30.24;48.33
17054;BME280;8643;48.824;11.422;2023-09-12T12:44:33;96616.22;;;30.40;48.75
17054;BME280;8643;48.824;11.422;2023-09-12T12:47:09;96619.00;;;30.59;47.76
17054;BME280;8643;48.824;11.422;2023-09-12T12:49:39;96609.25;;;30.69;50.28
17054;BME280;8643;48.824;11.422;2023-09-12T12:52:11;96610.78;;;30.88;46.86
17054;BME280;8643;48.824;11.422;2023-09-12T12:54:42;96604.47;;;30.94;48.24
17054;BME280;8643;48.824;11.422;2023-09-12T12:57:11;96605.41;;;31.00;46.66
17054;BME280;8643;48.824;11.422;2023-09-12T12:59:45;96606.19;;;30.91;48.52
17054;BME280;8643;48.824;11.422;2023-09-12T13:02:14;96598.63;;;30.55;47.37
17054;BME280;8643;48.824;11.422;2023-09-12T13:04:43;96603.31;;;30.58;50.07
17054;BME280;8643;48.824;11.422;2023-09-12T13:07:13;96593.25;;;30.57;49.23
17054;BME280;8643;48.824;11.422;2023-09-12T13:09:41;96592.34;;;30.50;48.92
17054;BME280;8643;48.824;11.422;2023-09-12T13:12:10;96593.91;;;30.14;48.16
17054;BME280;8643;48.824;11.422;2023-09-12T13:14:38;96590.63;;;29.88;49.00
17054;BME280;8643;48.824;11.422;2023-09-12T13:17:07;96596.28;;;29.97;48.81